createdAt,value
2022-08-12T00:00:43.960Z,20.16
2022-08-12T00:03:30.485Z,20.00
2022-08-12T00:06:17.739Z,19.93
2022-08-12T00:09:04.513Z,19.80
2022-08-12T00:11:51.984Z,19.70
2022-08-12T00:14:39.000Z,19.69
2022-08-12T00:17:26.736Z,19.69
2022-08-12T00:20:14.769Z,19.76
2022-08-12T00:23:02.878Z,19.69
2022-08-12T00:26:21.235Z,19.69
2022-08-12T00:29:07.696Z,19.67
2022-08-12T00:31:56.847Z,19.76
2022-08-12T00:34:43.556Z,19.61
2022-08-12T00:37:32.692Z,19.56
2022-08-12T00:40:20.013Z,19.46
2022-08-12T00:42:51.898Z,19.44
2022-08-12T00:45:20.392Z,19.34
2022-08-12T00:47:51.531Z,19.27
2022-08-12T00:50:22.387Z,19.29
2022-08-12T00:52:52.569Z,19.38
2022-08-12T00:55:21.435Z,19.34
2022-08-12T00:57:50.826Z,19.36
2022-08-12T01:00:21.672Z,19.21
2022-08-12T01:02:58.135Z,19.10
2022-08-12T01:05:53.290Z,19.06
2022-08-12T01:08:39.740Z,19.03
2022-08-12T01:11:29.062Z,18.97
2022-08-12T01:14:00.061Z,18.93
2022-08-12T01:16:28.456Z,18.93
2022-08-12T01:18:57.856Z,19.01
2022-08-12T01:21:40.704Z,19.14
2022-08-12T01:24:30.210Z,19.18
2022-08-12T01:27:01.353Z,19.25
2022-08-12T01:29:32.995Z,19.25
2022-08-12T01:32:08.320Z,19.39
2022-08-12T01:34:39.660Z,19.21
2022-08-12T01:37:09.828Z,19.11
2022-08-12T01:40:35.837Z,19.06
2022-08-12T01:42:47.271Z,19.03
2022-08-12T01:45:17.711Z,18.96
2022-08-12T01:48:03.817Z,19.03
2022-08-12T01:50:37.377Z,18.96
2022-08-12T01:53:10.472Z,18.97
2022-08-12T01:55:44.588Z,18.96
2022-08-12T01:59:01.058Z,18.86
2022-08-12T02:01:39.518Z,18.66
2022-08-12T02:04:44.995Z,18.53
2022-08-12T02:08:08.400Z,18.46
2022-08-12T02:10:57.859Z,18.67
2022-08-12T02:14:02.182Z,18.79
2022-08-12T02:16:39.292Z,19.06
2022-08-12T02:19:23.432Z,19.24
2022-08-12T02:22:38.279Z,19.06
2022-08-12T02:25:13.424Z,19.65
2022-08-12T02:27:52.212Z,19.72
2022-08-12T02:30:23.087Z,20.51
2022-08-12T02:32:53.587Z,19.96
2022-08-12T02:35:27.344Z,19.24
2022-08-12T02:37:59.331Z,18.90
2022-08-12T02:40:28.925Z,19.04
2022-08-12T02:43:12.562Z,18.96
2022-08-12T02:46:04.526Z,18.90
2022-08-12T02:49:00.759Z,18.89
2022-08-12T02:51:34.388Z,18.74
2022-08-12T02:54:06.182Z,18.53
2022-08-12T02:56:50.571Z,18.41
2022-08-12T02:59:24.545Z,18.73
2022-08-12T03:02:03.605Z,18.28
2022-08-12T03:04:47.693Z,18.07
2022-08-12T03:07:59.573Z,17.97
2022-08-12T03:10:36.650Z,17.87
2022-08-12T03:13:08.277Z,18.12
2022-08-12T03:15:37.632Z,18.32
2022-08-12T03:18:24.963Z,17.98
2022-08-12T03:21:00.261Z,17.76
2022-08-12T03:23:31.316Z,17.69
2022-08-12T03:26:02.415Z,17.65
2022-08-12T03:28:54.007Z,17.55
2022-08-12T03:31:29.784Z,17.74
2022-08-12T03:34:03.302Z,18.22
2022-08-12T03:36:35.022Z,18.17
2022-08-12T03:39:18.968Z,18.52
2022-08-12T03:42:09.543Z,18.89
2022-08-12T03:45:11.685Z,18.41
2022-08-12T03:48:18.663Z,18.77
2022-08-12T03:51:07.708Z,18.39
2022-08-12T03:53:55.212Z,18.14
2022-08-12T03:56:42.014Z,17.90
2022-08-12T03:59:28.856Z,18.11
2022-08-12T04:02:00.026Z,18.02
2022-08-12T04:04:35.546Z,17.69
2022-08-12T04:07:09.199Z,17.55
2022-08-12T04:09:41.569Z,17.53
2022-08-12T04:12:32.928Z,17.56
2022-08-12T04:15:01.968Z,17.65
2022-08-12T04:17:30.855Z,17.83
2022-08-12T04:19:59.669Z,17.74
2022-08-12T04:22:30.342Z,17.63
2022-08-12T04:25:02.860Z,17.80
2022-08-12T04:27:32.473Z,17.82
2022-08-12T04:30:16.787Z,17.90
2022-08-12T04:32:52.186Z,17.96
2022-08-12T04:35:22.098Z,18.10
2022-08-12T04:37:57.948Z,18.00
2022-08-12T04:40:30.210Z,18.17
2022-08-12T04:43:01.107Z,18.48
2022-08-12T04:45:31.148Z,18.45
2022-08-12T04:47:59.219Z,18.28
2022-08-12T04:50:35.990Z,18.52
2022-08-12T04:53:08.349Z,18.49
2022-08-12T04:55:39.255Z,19.11
2022-08-12T04:58:09.907Z,19.56
2022-08-12T05:00:38.683Z,20.13
2022-08-12T05:03:10.306Z,20.45
2022-08-12T05:05:40.821Z,20.73
2022-08-12T05:08:17.395Z,20.99
2022-08-12T05:10:47.484Z,21.24
2022-08-12T05:13:33.588Z,21.44
2022-08-12T05:16:05.219Z,21.46
2022-08-12T05:18:39.461Z,22.06
2022-08-12T05:21:09.342Z,22.41
2022-08-12T05:23:38.798Z,22.54
2022-08-12T05:26:07.535Z,22.79
2022-08-12T05:28:36.296Z,22.75
2022-08-12T05:31:04.963Z,22.95
2022-08-12T05:33:40.787Z,23.55
2022-08-12T05:36:12.569Z,23.54
2022-08-12T05:38:58.679Z,23.37
2022-08-12T05:41:35.239Z,23.69
2022-08-12T05:44:13.417Z,24.20
2022-08-12T05:46:41.825Z,24.03
2022-08-12T05:49:12.809Z,24.27
2022-08-12T05:51:41.861Z,24.09
2022-08-12T05:54:11.340Z,24.34
2022-08-12T05:56:41.302Z,24.64
2022-08-12T05:59:11.453Z,24.82
2022-08-12T06:02:12.521Z,25.13
2022-08-12T06:04:30.252Z,24.95
2022-08-12T06:06:58.295Z,25.13
2022-08-12T06:09:28.602Z,25.26
2022-08-12T06:12:04.465Z,25.54
2022-08-12T06:14:37.712Z,25.65
2022-08-12T06:17:09.292Z,26.05
2022-08-12T06:20:22.848Z,25.78
2022-08-12T06:22:26.772Z,26.06
2022-08-12T06:24:54.704Z,26.13
2022-08-12T06:27:22.664Z,26.37
2022-08-12T06:30:10.301Z,26.78
2022-08-12T06:33:04.235Z,26.29
2022-08-12T06:35:48.672Z,26.74
2022-08-12T06:38:21.372Z,26.78
2022-08-12T06:41:12.584Z,26.94
2022-08-12T06:44:04.585Z,27.20
2022-08-12T06:46:30.231Z,27.72
2022-08-12T06:48:59.523Z,28.04
2022-08-12T06:51:29.558Z,27.58
2022-08-12T06:53:58.613Z,27.62
2022-08-12T06:56:45.880Z,27.46
2022-08-12T06:59:15.603Z,27.43
2022-08-12T07:01:51.230Z,27.30
2022-08-12T07:04:38.452Z,27.61
2022-08-12T07:07:09.016Z,28.15
2022-08-12T07:10:06.983Z,28.10
2022-08-12T07:12:27.838Z,27.82
2022-08-12T07:15:01.783Z,27.84
2022-08-12T07:17:35.935Z,28.19
2022-08-12T07:20:09.945Z,28.15
2022-08-12T07:22:41.741Z,28.84
2022-08-12T07:25:29.509Z,28.26
2022-08-12T07:28:18.475Z,28.57
2022-08-12T07:30:49.150Z,28.69
2022-08-12T07:33:19.100Z,29.06
2022-08-12T07:35:48.118Z,28.72
2022-08-12T07:38:29.570Z,28.92
2022-08-12T07:41:06.679Z,29.20
2022-08-12T07:43:40.011Z,29.33
2022-08-12T07:46:15.030Z,29.23
2022-08-12T07:48:52.976Z,28.64
2022-08-12T07:51:25.314Z,28.92
2022-08-12T07:54:01.122Z,29.26
2022-08-12T07:56:31.692Z,28.82
2022-08-12T07:59:01.049Z,29.37
2022-08-12T08:01:29.474Z,29.61
2022-08-12T08:04:19.085Z,29.56
2022-08-12T08:06:48.294Z,29.47
2022-08-12T08:09:18.453Z,29.16
2022-08-12T08:12:05.177Z,29.66
2022-08-12T08:14:33.153Z,29.37
2022-08-12T08:17:06.830Z,29.51
2022-08-12T08:20:02.820Z,29.49
2022-08-12T08:22:35.629Z,29.61
2022-08-12T08:25:34.484Z,29.33
2022-08-12T08:28:04.521Z,29.26
2022-08-12T08:30:37.707Z,28.88
2022-08-12T08:33:22.682Z,29.15
2022-08-12T08:35:54.577Z,29.22
2022-08-12T08:38:32.011Z,29.37
2022-08-12T08:42:15.965Z,28.91
2022-08-12T08:44:11.302Z,28.71
2022-08-12T08:46:40.703Z,28.74
2022-08-12T08:49:08.942Z,28.58
2022-08-12T08:51:38.962Z,28.67
2022-08-12T08:54:12.478Z,28.77
2022-08-12T08:56:49.875Z,28.95
2022-08-12T08:59:19.538Z,28.56
2022-08-12T09:01:48.825Z,28.82
2022-08-12T09:05:11.903Z,29.05
2022-08-12T09:07:17.235Z,29.20
2022-08-12T09:10:02.016Z,29.15
2022-08-12T09:12:54.420Z,29.40
2022-08-12T09:15:41.646Z,29.09
2022-08-12T09:18:11.792Z,29.54
2022-08-12T09:24:00.123Z,30.11
2022-08-12T09:26:19.110Z,30.22
2022-08-12T09:32:04.382Z,29.95
2022-08-12T09:34:25.314Z,30.02
2022-08-12T09:37:02.922Z,30.15
2022-08-12T09:40:06.323Z,30.13
2022-08-12T09:43:15.927Z,30.41
2022-08-12T09:46:06.823Z,30.25
2022-08-12T09:48:36.027Z,30.33
2022-08-12T09:51:16.919Z,30.60
2022-08-12T09:54:08.471Z,30.73
2022-08-12T09:56:58.276Z,30.92
2022-08-12T10:00:13.154Z,30.64
2022-08-12T10:02:49.769Z,30.44
2022-08-12T10:05:13.562Z,30.84
2022-08-12T10:07:45.512Z,30.88
2022-08-12T10:10:22.878Z,30.73
2022-08-12T10:13:33.881Z,30.71
2022-08-12T10:16:05.917Z,30.85
2022-08-12T10:18:51.817Z,31.19
2022-08-12T10:21:37.815Z,30.78
2022-08-12T10:24:15.652Z,30.83
2022-08-12T10:27:07.694Z,30.80
2022-08-12T10:30:37.082Z,30.94
2022-08-12T10:32:43.831Z,30.94
2022-08-12T10:35:20.211Z,31.10
2022-08-12T10:38:37.835Z,31.04
2022-08-12T10:40:55.892Z,31.12
2022-08-12T10:43:55.611Z,30.99
2022-08-12T10:46:31.532Z,31.05
2022-08-12T10:49:07.033Z,30.94
2022-08-12T10:52:04.853Z,31.19
2022-08-12T10:54:37.662Z,31.21
2022-08-12T10:57:06.577Z,31.33
2022-08-12T11:00:01.442Z,31.19
2022-08-12T11:04:27.679Z,31.15
2022-08-12T11:07:10.114Z,31.26
2022-08-12T11:08:36.510Z,31.11
2022-08-12T11:10:53.452Z,31.01
2022-08-12T11:13:21.309Z,31.15
2022-08-12T11:16:22.244Z,31.26
2022-08-12T11:18:55.309Z,31.10
2022-08-12T11:21:31.081Z,31.18
2022-08-12T11:24:30.083Z,31.12
2022-08-12T11:27:07.278Z,31.15
2022-08-12T11:30:06.008Z,31.36
2022-08-12T11:32:28.607Z,31.02
2022-08-12T11:34:59.412Z,31.07
2022-08-12T11:37:27.542Z,30.92
2022-08-12T11:42:46.026Z,31.28
2022-08-12T11:45:16.620Z,31.60
2022-08-12T11:47:45.625Z,31.83
2022-08-12T11:50:19.546Z,31.83
2022-08-12T11:52:56.361Z,31.65
2022-08-12T11:55:27.554Z,31.66
2022-08-12T11:58:14.585Z,31.47
2022-08-12T12:03:44.012Z,31.42
2022-08-12T12:06:17.257Z,31.42
2022-08-12T12:08:50.895Z,31.53
2022-08-12T12:11:20.377Z,31.66
2022-08-12T12:14:08.298Z,31.72
2022-08-12T12:16:40.012Z,31.33
2022-08-12T12:19:10.571Z,31.21
2022-08-12T12:21:48.208Z,31.40
2022-08-12T12:24:22.465Z,31.67
2022-08-12T12:26:59.790Z,31.54
2022-08-12T12:30:19.121Z,31.50
2022-08-12T12:32:29.037Z,31.25
2022-08-12T12:35:13.561Z,31.35
2022-08-12T12:38:05.447Z,31.53
2022-08-12T12:40:44.998Z,31.46
2022-08-12T12:43:14.811Z,31.40
2022-08-12T12:45:46.474Z,31.53
2022-08-12T12:48:20.507Z,31.77
2022-08-12T12:51:13.553Z,31.50
2022-08-12T12:54:07.453Z,31.21
2022-08-12T12:56:43.075Z,31.19
2022-08-12T12:59:55.512Z,31.50
2022-08-12T13:02:08.657Z,31.57
2022-08-12T13:04:41.292Z,31.76
2022-08-12T13:07:13.255Z,31.90
2022-08-12T13:09:46.664Z,32.00
2022-08-12T13:12:15.132Z,31.97
2022-08-12T13:14:43.994Z,32.08
2022-08-12T13:17:24.124Z,32.07
2022-08-12T13:20:33.584Z,31.88
2022-08-12T13:23:02.902Z,31.70
2022-08-12T13:25:51.013Z,31.56
2022-08-12T13:28:24.420Z,31.57
2022-08-12T13:30:59.386Z,31.77
2022-08-12T13:33:28.748Z,31.80
2022-08-12T13:36:06.983Z,31.78
2022-08-12T13:38:44.055Z,31.50
2022-08-12T13:41:40.394Z,31.77
2022-08-12T13:44:11.706Z,31.85
2022-08-12T13:46:42.118Z,31.70
2022-08-12T13:49:53.357Z,31.57
2022-08-12T13:52:02.014Z,31.73
2022-08-12T13:54:32.890Z,31.69
2022-08-12T13:57:01.444Z,31.78
2022-08-12T13:59:30.945Z,31.74
2022-08-12T14:02:18.328Z,31.83
2022-08-12T14:04:56.227Z,31.93
2022-08-12T14:07:25.992Z,31.78
2022-08-12T14:10:16.076Z,32.14
2022-08-12T14:12:54.850Z,31.84
2022-08-12T14:15:35.066Z,31.66
2022-08-12T14:18:15.350Z,31.65
2022-08-12T14:20:52.158Z,31.63
2022-08-12T14:24:04.879Z,31.85
2022-08-12T14:26:17.055Z,31.83
2022-08-12T14:29:01.081Z,31.77
2022-08-12T14:31:32.511Z,31.73
2022-08-12T14:34:05.024Z,31.80
2022-08-12T14:36:34.060Z,31.81
2022-08-12T14:39:04.820Z,31.74
2022-08-12T14:41:37.060Z,31.80
2022-08-12T14:44:58.944Z,31.74
2022-08-12T14:47:10.119Z,31.77
2022-08-12T14:50:33.968Z,31.78
2022-08-12T14:53:13.362Z,31.69
2022-08-12T14:58:10.045Z,31.62
2022-08-12T15:00:58.137Z,31.73
2022-08-12T15:03:52.117Z,31.81
2022-08-12T15:06:43.738Z,31.84
2022-08-12T15:09:11.840Z,31.76
2022-08-12T15:11:48.816Z,31.80
2022-08-12T15:14:30.267Z,31.49
2022-08-12T15:17:00.158Z,31.35
2022-08-12T15:20:28.275Z,31.29
2022-08-12T15:22:35.656Z,31.45
2022-08-12T15:25:08.958Z,31.36
2022-08-12T15:28:03.876Z,31.56
2022-08-12T15:30:32.293Z,31.62
2022-08-12T15:33:14.863Z,31.77
2022-08-12T15:35:52.052Z,31.69
2022-08-12T15:38:24.896Z,31.66
2022-08-12T15:40:54.728Z,31.67
2022-08-12T15:43:35.644Z,31.50
2022-08-12T15:46:15.883Z,31.47
2022-08-12T15:48:46.707Z,31.50
2022-08-12T15:51:58.133Z,31.45
2022-08-12T15:54:34.500Z,31.42
2022-08-12T15:57:07.957Z,31.57
2022-08-12T15:59:51.248Z,31.62
2022-08-12T16:02:29.602Z,31.50
2022-08-12T16:05:00.480Z,31.38
2022-08-12T16:07:31.297Z,31.23
2022-08-12T16:10:12.332Z,31.40
2022-08-12T16:12:56.483Z,31.32
2022-08-12T16:15:29.396Z,31.25
2022-08-12T16:18:15.230Z,31.21
2022-08-12T16:20:48.749Z,31.30
2022-08-12T16:23:50.946Z,31.30
2022-08-12T16:26:14.870Z,31.23
2022-08-12T16:28:47.341Z,31.32
2022-08-12T16:31:22.639Z,31.40
2022-08-12T16:33:58.695Z,31.36
2022-08-12T16:36:35.226Z,31.40
2022-08-12T16:39:05.060Z,31.39
2022-08-12T16:41:38.066Z,31.36
2022-08-12T16:44:10.188Z,31.36
2022-08-12T16:46:57.459Z,31.32
2022-08-12T16:49:26.369Z,31.22
2022-08-12T16:52:12.656Z,31.16
2022-08-12T16:54:42.586Z,31.21
2022-08-12T16:57:14.082Z,31.18
2022-08-12T16:59:53.443Z,31.14
2022-08-12T17:02:33.578Z,30.99
2022-08-12T17:05:17.733Z,30.99
2022-08-12T17:08:18.399Z,30.95
2022-08-12T17:13:54.774Z,30.92
2022-08-12T17:16:30.485Z,30.88
2022-08-12T17:19:12.749Z,30.88
2022-08-12T17:22:02.771Z,30.74
2022-08-12T17:24:54.522Z,30.70
2022-08-12T17:27:26.235Z,30.64
2022-08-12T17:30:01.943Z,30.61
2022-08-12T17:32:35.382Z,30.61
2022-08-12T17:35:37.068Z,30.52
2022-08-12T17:38:11.826Z,30.46
2022-08-12T17:40:52.164Z,30.39
2022-08-12T17:43:56.752Z,30.32
2022-08-12T17:46:23.868Z,30.29
2022-08-12T17:49:00.684Z,30.25
2022-08-12T17:51:49.855Z,30.19
2022-08-12T17:54:19.839Z,30.12
2022-08-12T17:56:51.650Z,30.06
2022-08-12T17:59:47.979Z,30.02
2022-08-12T18:02:13.649Z,29.91
2022-08-12T18:05:05.091Z,29.88
2022-08-12T18:07:32.439Z,29.78
2022-08-12T18:10:10.399Z,29.73
2022-08-12T18:12:42.816Z,29.64
2022-08-12T18:16:03.516Z,29.51
2022-08-12T18:18:16.710Z,29.42
2022-08-12T18:20:46.687Z,29.36
2022-08-12T18:23:14.928Z,29.30
2022-08-12T18:26:14.460Z,29.19
2022-08-12T18:28:48.397Z,29.08
2022-08-12T18:31:26.151Z,28.99
2022-08-12T18:34:15.550Z,28.91
2022-08-12T18:36:51.686Z,28.75
2022-08-12T18:39:22.179Z,28.61
2022-08-12T18:41:52.676Z,28.53
2022-08-12T18:44:25.552Z,28.43
2022-08-12T18:46:58.103Z,28.30
2022-08-12T18:49:56.071Z,28.13
2022-08-12T18:52:33.895Z,28.08
2022-08-12T18:55:08.063Z,27.98
2022-08-12T18:58:06.049Z,27.85
2022-08-12T19:00:34.838Z,27.75
2022-08-12T19:03:23.447Z,27.61
2022-08-12T19:05:58.445Z,27.50
2022-08-12T19:08:30.077Z,27.40
2022-08-12T19:11:19.152Z,27.30
2022-08-12T19:14:08.008Z,27.23
2022-08-12T19:16:40.607Z,27.09
2022-08-12T19:19:11.262Z,27.05
2022-08-12T19:21:44.079Z,26.89
2022-08-12T19:24:44.512Z,26.75
2022-08-12T19:27:20.646Z,26.58
2022-08-12T19:30:06.733Z,26.48
2022-08-12T19:32:37.872Z,26.33
2022-08-12T19:38:06.276Z,25.88
2022-08-12T19:40:40.000Z,25.68
2022-08-12T19:43:19.970Z,25.55
2022-08-12T19:45:56.797Z,25.40
2022-08-12T19:48:33.031Z,25.26
2022-08-12T19:51:22.454Z,25.12
2022-08-12T19:53:57.278Z,25.07
2022-08-12T19:56:32.325Z,24.99
2022-08-12T19:59:20.998Z,24.92
2022-08-12T20:02:01.369Z,24.82
2022-08-12T20:04:42.024Z,24.76
2022-08-12T20:07:23.792Z,24.76
2022-08-12T20:09:55.622Z,24.80
2022-08-12T20:12:32.466Z,24.90
2022-08-12T20:15:17.568Z,24.96
2022-08-12T20:17:51.055Z,25.00
2022-08-12T20:20:28.252Z,24.96
2022-08-12T20:22:57.441Z,24.96
2022-08-12T20:25:28.455Z,24.97
2022-08-12T20:28:15.287Z,24.93
2022-08-12T20:30:59.291Z,24.93
2022-08-12T20:33:32.272Z,24.90
2022-08-12T20:36:06.953Z,24.88
2022-08-12T20:38:54.226Z,24.90
2022-08-12T20:41:24.005Z,24.79
2022-08-12T20:43:59.831Z,24.72
2022-08-12T20:46:32.945Z,24.64
2022-08-12T20:49:17.085Z,24.54
2022-08-12T20:51:55.291Z,24.40
2022-08-12T20:54:32.677Z,24.21
2022-08-12T20:57:09.687Z,24.14
2022-08-12T20:59:49.419Z,24.07
2022-08-12T21:02:24.735Z,24.00
2022-08-12T21:05:20.221Z,23.95
2022-08-12T21:07:52.365Z,23.86
2022-08-12T21:10:26.464Z,23.82
2022-08-12T21:12:55.692Z,23.76
2022-08-12T21:15:30.801Z,23.69
2022-08-12T21:18:28.925Z,23.55
2022-08-12T21:21:00.696Z,23.45
2022-08-12T21:23:36.993Z,23.35
2022-08-12T21:26:16.162Z,23.27
2022-08-12T21:28:58.342Z,23.28
2022-08-12T21:32:39.734Z,23.13
2022-08-12T21:34:26.359Z,22.95
2022-08-12T21:37:12.888Z,22.83
2022-08-12T21:39:56.369Z,22.71
2022-08-12T21:42:26.946Z,22.61
2022-08-12T21:45:48.078Z,22.49
2022-08-12T21:47:53.289Z,22.35
2022-08-12T21:50:35.575Z,22.18
2022-08-12T21:53:10.470Z,22.10
2022-08-12T21:55:39.816Z,22.07
2022-08-12T21:58:16.752Z,22.08
2022-08-12T22:00:45.437Z,22.06
2022-08-12T22:04:02.881Z,21.99
2022-08-12T22:06:30.942Z,21.86
2022-08-12T22:09:16.128Z,21.75
2022-08-12T22:11:56.052Z,21.63
2022-08-12T22:14:29.051Z,21.55
2022-08-12T22:17:00.351Z,21.48
2022-08-12T22:19:33.788Z,21.46
2022-08-12T22:22:05.374Z,21.37
2022-08-12T22:24:36.870Z,21.28
2022-08-12T22:27:32.684Z,21.23
2022-08-12T22:30:19.767Z,21.15
2022-08-12T22:32:50.660Z,21.11
2022-08-12T22:35:47.699Z,21.10
2022-08-12T22:38:26.751Z,21.06
2022-08-12T22:41:01.284Z,20.96
2022-08-12T22:43:58.624Z,20.87
2022-08-12T22:46:41.002Z,20.80
2022-08-12T22:49:22.261Z,20.72
2022-08-12T22:52:00.876Z,20.59
2022-08-12T22:54:36.946Z,20.52
2022-08-12T22:57:12.055Z,20.42
2022-08-12T22:59:55.090Z,20.32
2022-08-12T23:02:28.716Z,20.21
2022-08-12T23:04:59.658Z,20.11
2022-08-12T23:07:36.338Z,20.01
2022-08-12T23:10:18.926Z,19.96
2022-08-12T23:13:08.695Z,20.53
2022-08-12T23:15:40.181Z,21.31
2022-08-12T23:18:16.845Z,21.15
2022-08-12T23:20:45.557Z,21.41
2022-08-12T23:23:20.882Z,22.35
2022-08-12T23:25:55.642Z,22.04
2022-08-12T23:28:42.519Z,22.01
2022-08-12T23:31:10.912Z,22.06
2022-08-12T23:34:02.395Z,21.94
2022-08-12T23:36:39.187Z,21.94
2022-08-12T23:40:06.598Z,21.63
2022-08-12T23:42:16.961Z,21.08
2022-08-12T23:44:48.604Z,20.79
2022-08-12T23:47:21.701Z,20.44
2022-08-12T23:49:56.998Z,20.25
2022-08-12T23:52:33.843Z,20.29
2022-08-12T23:55:23.475Z,20.17
2022-08-12T23:58:21.046Z,20.18
